Time;durP1;ratioP1;P1;durP2;ratioP2;P2;SDS_P1;SDS_P2;PMS_P1;PMS_P2;Temp;Humidity;BMP_temperature;BMP_pressure;BME280_temperature;BME280_humidity;BME280_pressure;Samples;Min_cycle;Max_cycle;Signal;HPM_P1;HPM_P2
2023/06/15 00:04:18;;;;;;;7.32;4.70;;;;;;;13.46;59.84;97891.72;10551376;28;20134;-68
2023/06/15 00:09:39;;;;;;;6.95;4.40;;;;;;;13.44;60.18;97888.78;10572598;28;20111;-68
2023/06/15 00:15:00;;;;;;;7.63;5.00;;;;;;;13.30;60.36;97879.53;10572004;28;20044;-68
2023/06/15 00:20:28;;;;;;;7.43;4.35;;;;;;;13.16;60.81;97887.81;10557790;28;20067;-68
2023/06/15 00:25:51;;;;;;;6.40;4.53;;;;;;;13.12;61.47;97886.84;10572741;28;20043;-68
2023/06/15 00:31:12;;;;;;;5.55;4.15;;;;;;;13.12;61.78;97881.97;10558248;28;20560;-71
2023/06/15 00:36:33;;;;;;;6.10;3.85;;;;;;;13.12;61.68;97879.19;10586541;28;20066;-67
2023/06/15 00:41:54;;;;;;;8.20;4.80;;;;;;;12.99;61.76;97874.16;10556778;28;20097;-68
2023/06/15 00:47:17;;;;;;;5.65;4.00;;;;;;;12.85;62.36;97878.94;10556814;28;20036;-68
2023/06/15 00:52:38;;;;;;;6.72;3.45;;;;;;;12.82;63.15;97878.06;10556393;28;20501;-68
2023/06/15 00:57:59;;;;;;;5.60;3.80;;;;;;;12.94;63.43;97874.56;10556243;28;20469;-68
2023/06/15 01:03:20;;;;;;;7.97;4.63;;;;;;;12.93;63.51;97875.88;10585507;28;20126;-68
2023/06/15 01:08:47;;;;;;;5.70;3.92;;;;;;;12.79;63.34;97868.06;10555936;28;20114;-68
2023/06/15 01:14:08;;;;;;;4.88;3.70;;;;;;;12.73;63.51;97866.97;10570340;28;20043;-68
2023/06/15 01:19:54;;;;;;;7.10;3.85;;;;;;;12.68;64.30;97863.19;10555044;28;20111;-67
2023/06/15 01:25:53;;;;;;;5.63;3.72;;;;;;;12.59;65.23;97866.84;10556500;28;20122;-68
2023/06/15 01:31:14;;;;;;;5.00;3.85;;;;;;;12.51;64.46;97861.47;10569043;28;20472;-69
2023/06/15 01:36:36;;;;;;;5.07;3.55;;;;;;;12.47;65.16;97861.22;10554757;28;20548;-68
2023/06/15 01:41:57;;;;;;;6.15;3.53;;;;;;;12.51;65.23;97855.13;10555020;28;20122;-69
2023/06/15 01:47:18;;;;;;;5.38;3.72;;;;;;;12.52;65.45;97853.81;10554235;28;20114;-68
2023/06/15 01:52:38;;;;;;;6.20;4.40;;;;;;;12.53;65.26;97846.84;10554225;28;20075;-68
2023/06/15 01:57:59;;;;;;;8.80;4.47;;;;;;;12.49;65.78;97855.03;10526290;28;20040;-67
2023/06/15 02:03:20;;;;;;;6.88;5.00;;;;;;;12.37;66.13;97862.66;10539193;28;20126;-68
2023/06/15 02:08:41;;;;;;;7.78;4.25;;;;;;;12.33;66.21;97863.13;10567626;28;20202;-67
2023/06/15 02:14:05;;;;;;;5.53;3.95;;;;;;;12.26;66.43;97859.25;10567030;28;20054;-67
2023/06/15 02:19:28;;;;;;;6.93;4.57;;;;;;;12.21;66.67;97856.78;10553068;28;20549;-68
2023/06/15 02:24:49;;;;;;;6.80;5.03;;;;;;;12.19;67.23;97851.06;10552823;28;20035;-67
2023/06/15 02:30:10;;;;;;;7.88;4.70;;;;;;;12.19;67.05;97857.38;10566171;28;20040;-68
2023/06/15 02:35:31;;;;;;;6.30;5.10;;;;;;;12.16;67.47;97866.25;10538803;28;20040;-68
2023/06/15 02:40:52;;;;;;;6.20;4.47;;;;;;;12.08;67.39;97874.88;10552285;28;20119;-68
2023/06/15 02:46:15;;;;;;;7.22;5.00;;;;;;;11.99;67.76;97875.69;10566795;28;20461;-68
2023/06/15 02:51:37;;;;;;;7.93;5.22;;;;;;;11.98;68.02;97877.03;10566118;28;20073;-68
2023/06/15 02:56:58;;;;;;;8.57;5.45;;;;;;;11.95;68.40;97861.44;10566090;28;20592;-68
2023/06/15 03:02:23;;;;;;;7.00;5.05;;;;;;;11.99;68.45;97870.84;10552286;28;20545;-67
2023/06/15 03:07:43;;;;;;;7.35;5.70;;;;;;;12.06;68.41;97874.00;10551810;28;20402;-68
2023/06/15 03:13:29;;;;;;;8.77;5.35;;;;;;;12.09;68.60;97886.81;10569020;28;20473;-68
2023/06/15 03:18:52;;;;;;;9.47;6.57;;;;;;;12.14;68.81;97880.84;10551563;28;20493;-68
2023/06/15 03:24:13;;;;;;;8.05;5.88;;;;;;;12.24;68.74;97878.69;10551627;28;20127;-68
2023/06/15 03:29:37;;;;;;;11.35;6.57;;;;;;;12.38;68.85;97887.25;10551600;28;20119;-67
2023/06/15 03:34:59;;;;;;;7.82;5.80;;;;;;;12.50;68.71;97892.88;10558404;28;20123;-68
2023/06/15 03:40:20;;;;;;;8.65;6.07;;;;;;;12.58;68.40;97888.50;10584843;28;20092;-68
2023/06/15 03:45:42;;;;;;;8.80;5.35;;;;;;;12.69;68.40;97894.75;10558999;28;20115;-68
2023/06/15 03:51:03;;;;;;;10.07;6.25;;;;;;;12.85;68.62;97899.28;10558930;28;20067;-67
2023/06/15 03:56:25;;;;;;;8.80;6.20;;;;;;;13.09;68.30;97904.88;10558625;28;20116;-68
2023/06/15 04:01:46;;;;;;;10.90;6.07;;;;;;;13.31;68.09;97903.41;10572642;28;20090;-68
2023/06/15 04:07:08;;;;;;;9.00;6.20;;;;;;;13.49;67.78;97912.19;10544267;28;20040;-68
2023/06/15 04:12:30;;;;;;;8.95;5.95;;;;;;;13.66;67.69;97911.06;10572002;28;20074;-68
2023/06/15 04:17:51;;;;;;;7.93;5.53;;;;;;;13.82;67.50;97914.81;10557944;28;20039;-69
2023/06/15 04:23:12;;;;;;;8.10;5.93;;;;;;;14.07;67.16;97910.56;10557363;28;20485;-68
2023/06/15 04:28:35;;;;;;;7.63;6.10;;;;;;;14.32;66.83;97908.50;10557521;28;20382;-68
2023/06/15 04:33:58;;;;;;;9.65;6.53;;;;;;;14.59;66.69;97910.72;10557265;28;20040;-68
2023/06/15 04:39:27;;;;;;;7.82;6.00;;;;;;;14.88;65.99;97915.06;10571788;28;20062;-68
2023/06/15 04:44:53;;;;;;;10.82;6.97;;;;;;;15.08;65.50;97916.13;10557947;28;20039;-68
2023/06/15 04:50:14;;;;;;;9.25;6.15;;;;;;;15.28;64.53;97910.84;10556223;28;20035;-68
2023/06/15 04:55:36;;;;;;;9.52;5.75;;;;;;;15.56;63.88;97911.56;10542449;28;20172;-68
2023/06/15 05:00:58;;;;;;;8.98;5.68;;;;;;;15.98;62.97;97918.59;10570109;28;20039;-68
2023/06/15 05:06:19;;;;;;;8.45;5.60;;;;;;;16.30;61.83;97927.16;10556312;28;20040;-68
2023/06/15 05:11:40;;;;;;;9.25;5.82;;;;;;;16.51;60.26;97923.22;10542049;28;20482;-68
2023/06/15 05:17:03;;;;;;;7.95;5.63;;;;;;;16.84;60.03;97920.56;10541638;28;20035;-68
2023/06/15 05:22:25;;;;;;;;;;;;;;;17.32;58.28;97920.56;10570336;28;20046;-68
2023/06/15 05:27:47;;;;;;;7.47;5.43;;;;;;;17.66;57.32;97926.97;10565663;28;19972;-68
2023/06/15 05:33:09;;;;;;;9.18;6.03;;;;;;;18.11;56.56;97937.34;10532550;28;20369;-68
2023/06/15 05:38:31;;;;;;;7.65;5.57;;;;;;;18.46;55.41;97943.00;10540674;28;20054;-68
2023/06/15 05:43:52;;;;;;;7.25;5.65;;;;;;;18.86;54.14;97937.50;10553984;28;20050;-68
2023/06/15 05:49:13;;;;;;;6.20;5.35;;;;;;;19.47;53.00;97939.00;10583170;28;20035;-69
2023/06/15 05:54:34;;;;;;;9.73;5.93;;;;;;;20.05;51.51;97945.28;10553556;28;20063;-68
2023/06/15 05:59:55;;;;;;;11.45;5.40;;;;;;;20.30;49.68;97945.44;10539972;28;20101;-67
2023/06/15 06:05:17;;;;;;;8.68;5.47;;;;;;;20.22;49.35;97939.50;10530048;28;20052;-67
2023/06/15 06:10:39;;;;;;;9.25;6.47;;;;;;;20.52;48.32;97953.22;10511457;28;20044;-66
2023/06/15 06:16:17;;;;;;;12.05;7.10;;;;;;;21.10;47.61;97950.75;10525030;28;20032;-66
2023/06/15 06:21:38;;;;;;;12.93;6.90;;;;;;;21.79;45.97;97958.38;10524911;28;20040;-66
2023/06/15 06:27:00;;;;;;;9.25;5.85;;;;;;;;;;10510722;28;20036;-67
2023/06/15 06:32:21;;;;;;;11.55;5.82;;;;;;;22.56;44.25;97946.13;10539519;28;20044;-66
2023/06/15 06:37:41;;;;;;;8.23;4.63;;;;;;;22.90;42.85;97956.91;10524669;28;20040;-67
2023/06/15 06:43:03;;;;;;;5.25;3.50;;;;;;;23.41;42.39;97947.28;10524174;28;20044;-66
2023/06/15 06:48:24;;;;;;;8.20;3.88;;;;;;;23.42;41.14;97959.41;10524285;28;20398;-66
2023/06/15 06:53:45;;;;;;;8.38;4.68;;;;;;;23.98;40.29;97962.66;10524396;28;20044;-67
2023/06/15 06:59:06;;;;;;;5.45;4.28;;;;;;;24.31;38.97;97962.50;10523936;28;20044;-69
2023/06/15 07:04:26;;;;;;;9.00;4.20;;;;;;;24.71;38.98;97953.91;10545799;28;20059;-69
2023/06/15 07:09:47;;;;;;;6.80;4.07;;;;;;;24.69;36.87;97965.25;10551670;28;20036;-69
2023/06/15 07:15:08;;;;;;;7.10;3.67;;;;;;;25.10;36.25;97955.19;10562080;27;20047;-69
2023/06/15 07:20:29;;;;;;;4.30;3.40;;;;;;;25.23;35.80;97959.66;10550949;27;20043;-71
2023/06/15 07:25:52;;;;;;;5.75;2.80;;;;;;;25.95;35.12;97949.75;10530809;28;20052;-72
2023/06/15 07:31:13;;;;;;;;;;;;;;;27.18;33.79;97957.91;10571311;28;20039;-72
2023/06/15 07:36:35;;;;;;;5.85;2.63;;;;;;;28.07;33.31;97957.50;10575108;28;19926;-69
2023/06/15 07:41:56;;;;;;;3.88;2.25;;;;;;;29.25;32.12;97954.59;10581664;28;20071;-71
2023/06/15 07:47:17;;;;;;;5.47;2.40;;;;;;;29.70;30.29;97956.56;10571468;28;20473;-72
2023/06/15 07:52:38;;;;;;;5.50;2.80;;;;;;;29.66;28.63;97956.59;10571447;28;20039;-71
2023/06/15 07:57:59;;;;;;;5.25;2.83;;;;;;;29.49;27.96;97955.94;10569395;28;20039;-71
2023/06/15 08:03:20;;;;;;;5.30;3.03;;;;;;;28.54;28.56;97965.44;10571500;28;20450;-72
2023/06/15 08:08:42;;;;;;;5.22;3.10;;;;;;;28.01;28.50;97959.66;10557341;28;20137;-71
2023/06/15 08:14:03;;;;;;;3.88;3.00;;;;;;;26.61;30.35;97956.81;10586657;28;20047;-70
2023/06/15 08:19:25;;;;;;;7.77;2.60;;;;;;;26.88;30.94;97954.84;10560490;28;20047;-71
2023/06/15 08:24:46;;;;;;;3.67;2.65;;;;;;;27.21;30.78;97950.75;10532591;28;20452;-70
2023/06/15 08:30:08;;;;;;;3.73;2.63;;;;;;;27.70;30.25;97951.00;10529175;28;20114;-70
2023/06/15 08:35:29;;;;;;;6.15;2.83;;;;;;;28.31;29.16;97951.09;10543483;28;20044;-71
2023/06/15 08:40:50;;;;;;;3.33;2.53;;;;;;;29.13;28.36;97946.00;10545475;27;20069;-70
2023/06/15 08:46:12;;;;;;;5.28;2.40;;;;;;;29.08;27.65;97950.31;10582097;27;20115;-71
2023/06/15 08:51:33;;;;;;;5.10;2.27;;;;;;;28.02;28.52;97938.13;10566569;28;20044;-68
2023/06/15 08:56:54;;;;;;;5.88;3.10;;;;;;;27.66;29.63;97942.34;10569900;28;20081;-71
2023/06/15 09:02:20;;;;;;;5.70;2.30;;;;;;;27.20;30.08;97943.59;10553311;28;20056;-68
2023/06/15 09:07:41;;;;;;;11.63;3.00;;;;;;;27.11;30.62;97944.97;10569970;28;20069;-68
2023/06/15 09:13:02;;;;;;;6.30;2.70;;;;;;;27.22;29.88;97946.47;10567652;28;20048;-69
2023/06/15 09:18:23;;;;;;;5.43;2.30;;;;;;;27.79;30.24;97945.97;10566892;28;20039;-69
2023/06/15 09:23:45;;;;;;;6.60;2.55;;;;;;;28.35;29.65;97944.63;10568813;28;20485;-72
2023/06/15 09:29:12;;;;;;;5.65;2.67;;;;;;;28.35;28.78;97933.16;10558968;28;20398;-70
2023/06/15 09:34:33;;;;;;;6.47;2.58;;;;;;;28.96;28.09;97950.38;10553590;28;20047;-71
2023/06/15 09:39:55;;;;;;;4.40;2.67;;;;;;;28.75;27.99;97943.88;10563509;28;20127;-69
2023/06/15 09:45:15;;;;;;;6.90;2.30;;;;;;;29.12;27.59;97941.69;10558137;28;20044;-71
2023/06/15 09:50:36;;;;;;;4.18;2.50;;;;;;;30.30;26.27;97923.81;10567188;28;20050;-70
2023/06/15 09:55:57;;;;;;;4.28;2.13;;;;;;;29.80;25.40;97925.59;10541755;28;20039;-70
2023/06/15 10:01:18;;;;;;;;;;;;;;;29.33;25.23;97925.06;10567066;28;20064;-70
2023/06/15 10:06:41;;;;;;;4.97;2.30;;;;;;;29.13;25.39;97925.88;10545229;28;19920;-71
2023/06/15 10:12:09;;;;;;;5.95;2.42;;;;;;;28.67;26.53;97918.78;10551889;28;20044;-69
2023/06/15 10:17:33;;;;;;;4.47;2.05;;;;;;;28.36;27.08;97912.34;10552953;28;20036;-70
2023/06/15 10:23:03;;;;;;;9.80;2.58;;;;;;;27.92;28.16;97913.75;10545316;27;20043;-71
2023/06/15 10:28:25;;;;;;;6.43;2.22;;;;;;;28.64;27.93;97917.34;10581105;27;20039;-70
2023/06/15 10:33:54;;;;;;;4.13;1.92;;;;;;;29.85;26.37;97909.03;10593493;27;20116;-70
2023/06/15 10:39:22;;;;;;;5.88;2.00;;;;;;;29.42;25.48;97899.88;10553702;28;20047;-72
2023/06/15 10:44:42;;;;;;;4.55;2.10;;;;;;;29.18;26.13;97895.69;10562042;28;20074;-70
2023/06/15 10:50:06;;;;;;;6.72;2.00;;;;;;;28.76;26.62;97905.13;10560882;27;20046;-70
2023/06/15 10:55:28;;;;;;;7.18;3.22;;;;;;;27.58;28.39;97910.75;10527643;28;20048;-70
2023/06/15 11:01:05;;;;;;;3.28;2.00;;;;;;;25.94;30.72;97900.44;10530213;28;20097;-69
2023/06/15 11:06:33;;;;;;;5.47;2.40;;;;;;;25.07;33.04;97908.03;10598902;28;20104;-68
2023/06/15 11:11:54;;;;;;;4.82;2.30;;;;;;;24.12;35.62;97902.28;10606210;28;20066;-70
2023/06/15 11:17:15;;;;;;;4.63;2.22;;;;;;;24.14;35.75;97907.34;10606562;28;20047;-69
2023/06/15 11:22:36;;;;;;;4.47;2.47;;;;;;;24.24;35.73;97899.66;10592609;28;20043;-69
2023/06/15 11:27:57;;;;;;;4.35;2.20;;;;;;;24.44;35.43;97907.13;10592770;28;20099;-69
2023/06/15 11:33:31;;;;;;;7.17;2.50;;;;;;;25.14;34.81;97897.41;10592877;28;20054;-69
2023/06/15 11:38:53;;;;;;;4.85;2.65;;;;;;;25.91;33.54;97896.13;10606983;28;20112;-70
2023/06/15 11:44:14;;;;;;;4.28;2.58;;;;;;;26.88;32.23;97886.84;10621812;28;20040;-70
2023/06/15 11:49:35;;;;;;;4.53;2.53;;;;;;;27.33;31.18;97889.94;10592901;28;20085;-71
2023/06/15 11:55:07;;;;;;;4.47;2.08;;;;;;;27.79;31.01;97888.63;10569801;28;20410;-70
2023/06/15 12:00:28;;;;;;;5.65;1.90;;;;;;;27.89;30.60;97892.25;10524610;28;20446;-69
2023/06/15 12:05:57;;;;;;;4.80;2.30;;;;;;;27.47;29.89;97880.66;10529030;28;20058;-71
2023/06/15 12:11:22;;;;;;;5.32;2.35;;;;;;;27.78;28.83;97875.72;10515317;28;20496;-69
2023/06/15 12:16:48;;;;;;;6.82;2.00;;;;;;;27.83;27.86;97868.56;10514924;28;20040;-71
2023/06/15 12:22:08;;;;;;;7.63;1.80;;;;;;;27.73;27.44;97857.06;10528334;28;20047;-70
2023/06/15 12:27:31;;;;;;;5.80;1.75;;;;;;;27.79;27.70;97859.94;10543337;28;20036;-69
2023/06/15 12:32:52;;;;;;;5.35;1.90;;;;;;;27.99;27.13;97851.38;10528694;28;20048;-70
2023/06/15 12:38:13;;;;;;;8.88;2.03;;;;;;;28.21;26.68;97862.13;10528200;28;20189;-70
2023/06/15 12:43:34;;;;;;;3.97;1.80;;;;;;;28.51;26.39;97862.09;10527901;28;20109;-70
2023/06/15 12:48:57;;;;;;;6.10;2.43;;;;;;;27.57;26.58;97849.13;10523772;28;20098;-71
2023/06/15 12:54:18;;;;;;;;;;;;;;;27.52;26.83;97851.28;10526534;28;20048;-70
2023/06/15 12:59:41;;;;;;;5.45;1.88;;;;;;;27.38;26.68;97840.50;10532587;28;19920;-69
2023/06/15 13:05:04;;;;;;;3.90;1.83;;;;;;;27.02;27.11;97837.47;10523507;28;20105;-69
2023/06/15 13:10:25;;;;;;;6.55;2.13;;;;;;;26.81;26.86;97825.22;10526702;28;20076;-71
2023/06/15 13:15:48;;;;;;;5.75;1.83;;;;;;;27.57;26.67;97821.19;10512181;28;20496;-69
2023/06/15 13:21:09;;;;;;;5.13;2.22;;;;;;;28.29;26.02;97832.72;10489837;28;20052;-70
2023/06/15 13:26:31;;;;;;;4.37;1.87;;;;;;;28.27;25.46;97829.81;10498809;28;20035;-68
2023/06/15 13:31:52;;;;;;;4.53;1.88;;;;;;;28.68;25.29;97836.94;10567424;28;20036;-71
2023/06/15 13:37:16;;;;;;;2.93;1.80;;;;;;;28.27;25.34;97826.94;10533334;28;20036;-72
2023/06/15 13:42:38;;;;;;;7.40;1.95;;;;;;;27.59;25.49;97824.03;10512506;28;20494;-70
2023/06/15 13:47:59;;;;;;;9.85;1.92;;;;;;;27.93;25.32;97820.53;10511668;28;20044;-70
2023/06/15 13:53:21;;;;;;;6.33;1.83;;;;;;;28.64;25.47;97827.59;10520958;28;20048;-71
2023/06/15 13:58:42;;;;;;;6.47;2.30;;;;;;;28.74;24.00;97822.56;10528666;28;20039;-70
2023/06/15 14:04:04;;;;;;;6.07;1.83;;;;;;;28.90;24.10;97818.22;10493879;28;20452;-70
2023/06/15 14:09:26;;;;;;;4.33;2.07;;;;;;;29.14;23.23;97820.97;10555603;27;20401;-70
2023/06/15 14:14:47;;;;;;;3.53;2.45;;;;;;;29.07;21.74;97814.56;10568024;28;20075;-69
2023/06/15 14:20:08;;;;;;;6.53;2.50;;;;;;;29.51;22.00;97797.78;10541280;27;20465;-70
2023/06/15 14:25:29;;;;;;;7.10;2.00;;;;;;;29.65;21.63;97803.47;10559770;28;20051;-70
2023/06/15 14:30:50;;;;;;;7.13;2.13;;;;;;;28.98;22.21;97813.16;10546029;28;20040;-70
2023/06/15 14:36:12;;;;;;;5.90;2.20;;;;;;;28.29;23.05;97804.03;10523522;28;20543;-71
2023/06/15 14:41:34;;;;;;;2.42;1.73;;;;;;;28.04;23.85;97798.28;10524623;28;20122;-74
2023/06/15 14:46:55;;;;;;;5.55;1.70;;;;;;;27.58;24.34;97796.81;10518410;28;20603;-69
2023/06/15 14:52:16;;;;;;;7.78;2.28;;;;;;;27.04;24.64;97801.00;10507139;28;20339;-70
2023/06/15 14:57:37;;;;;;;3.03;1.65;;;;;;;26.79;25.09;97788.72;10507177;28;20097;-70
2023/06/15 15:02:58;;;;;;;7.43;2.58;;;;;;;26.75;24.84;97794.44;10523848;28;20131;-70
2023/06/15 15:08:19;;;;;;;4.15;2.20;;;;;;;26.42;25.13;97796.41;10538680;28;20036;-70
2023/06/15 15:13:40;;;;;;;5.40;2.20;;;;;;;26.20;25.57;97796.25;10509667;28;20067;-70
2023/06/15 15:19:01;;;;;;;7.22;2.13;;;;;;;26.22;25.77;97796.97;10495672;28;20086;-70
2023/06/15 15:24:22;;;;;;;6.35;2.40;;;;;;;26.34;26.16;97795.59;10523598;28;20044;-69
2023/06/15 15:29:42;;;;;;;4.47;2.25;;;;;;;26.49;26.04;97803.59;10523245;28;20458;-70
2023/06/15 15:35:04;;;;;;;4.63;1.90;;;;;;;26.39;26.38;97806.41;10511495;28;20078;-69
2023/06/15 15:40:25;;;;;;;5.32;1.92;;;;;;;25.65;27.92;97827.94;10528222;28;20044;-70
2023/06/15 15:45:46;;;;;;;6.10;1.73;;;;;;;24.50;28.92;97841.56;10517217;28;20043;-70
2023/06/15 15:51:07;;;;;;;4.38;1.70;;;;;;;23.65;29.81;97855.19;10531100;28;20044;-70
2023/06/15 15:56:28;;;;;;;5.45;1.55;;;;;;;22.76;31.02;97851.25;10530730;28;20449;-70
2023/06/15 16:01:48;;;;;;;4.85;1.95;;;;;;;22.21;32.06;97850.06;10530684;28;20059;-69
2023/06/15 16:07:09;;;;;;;4.18;1.90;;;;;;;21.60;34.09;97854.19;10516340;28;20052;-69
2023/06/15 16:12:30;;;;;;;3.80;1.90;;;;;;;21.25;36.17;97878.81;10502292;28;20359;-67
2023/06/15 16:17:50;;;;;;;5.60;1.73;;;;;;;21.12;36.40;97888.34;10516084;28;20060;-67
2023/06/15 16:23:12;;;;;;;2.97;1.63;;;;;;;20.99;37.38;97892.25;10545160;28;20117;-67
2023/06/15 16:28:32;;;;;;;2.45;1.83;;;;;;;20.67;38.79;97898.41;10515815;28;20044;-67
2023/06/15 16:33:53;;;;;;;2.80;1.42;;;;;;;20.40;39.50;97885.50;10529488;28;20098;-67
2023/06/15 16:39:35;;;;;;;1.90;1.33;;;;;;;20.01;40.38;97886.41;10529314;28;20445;-67
2023/06/15 16:45:03;;;;;;;3.25;1.55;;;;;;;19.87;40.89;97883.06;10531718;28;20094;-67
2023/06/15 16:50:25;;;;;;;1.88;1.25;;;;;;;19.82;40.76;97878.69;10529596;28;20115;-67
2023/06/15 16:55:45;;;;;;;4.55;1.40;;;;;;;19.58;41.74;97890.63;10528659;28;20119;-67
2023/06/15 17:01:07;;;;;;;3.25;1.30;;;;;;;19.36;43.32;97878.50;10500550;28;20093;-67
2023/06/15 17:06:28;;;;;;;2.55;1.05;;;;;;;19.26;44.18;97876.03;10514210;28;20572;-67
2023/06/15 17:11:49;;;;;;;1.88;1.17;;;;;;;19.32;44.32;97864.94;10528159;28;20418;-68
2023/06/15 17:17:09;;;;;;;2.67;1.40;;;;;;;19.01;45.39;97854.66;10513920;28;20043;-68
2023/06/15 17:22:30;;;;;;;4.13;1.73;;;;;;;18.53;48.27;97833.75;10527610;28;20056;-69
2023/06/15 17:27:51;;;;;;;3.10;1.50;;;;;;;18.06;49.90;97822.75;10542669;28;20074;-69
2023/06/15 17:33:11;;;;;;;2.80;1.98;;;;;;;17.98;51.19;97835.19;10527283;28;20063;-69
2023/06/15 17:38:32;;;;;;;5.60;1.42;;;;;;;18.14;51.24;97840.00;10512960;28;20086;-68
2023/06/15 17:43:53;;;;;;;3.40;1.80;;;;;;;18.05;51.83;97838.22;10526891;28;20115;-69
2023/06/15 17:49:13;;;;;;;3.42;1.45;;;;;;;17.79;52.81;97830.16;10512492;28;20059;-68
2023/06/15 17:54:34;;;;;;;2.45;1.58;;;;;;;17.67;52.79;97821.91;10526560;28;20060;-69
2023/06/15 17:59:55;;;;;;;4.07;1.40;;;;;;;17.63;53.24;97827.38;10512185;28;20135;-69
2023/06/15 18:05:16;;;;;;;3.20;2.00;;;;;;;17.66;53.19;97819.69;10511949;28;20123;-68
2023/06/15 18:10:38;;;;;;;6.47;1.95;;;;;;;17.53;53.87;97814.94;10525523;28;20060;-68
2023/06/15 18:15:58;;;;;;;2.60;1.80;;;;;;;17.59;54.56;97820.84;10511633;28;20063;-69
2023/06/15 18:21:19;;;;;;;5.88;1.92;;;;;;;17.67;55.08;97816.25;10540700;28;20036;-68
2023/06/15 18:26:43;;;;;;;3.20;2.00;;;;;;;17.94;55.16;97820.88;10511252;28;20043;-68
2023/06/15 18:32:04;;;;;;;2.55;1.85;;;;;;;18.04;55.08;97823.38;10510967;28;20039;-69
2023/06/15 18:37:25;;;;;;;5.25;2.15;;;;;;;18.13;54.83;97824.41;10524909;28;20055;-69
2023/06/15 18:42:45;;;;;;;4.60;2.17;;;;;;;17.99;55.00;97825.31;10510916;28;20392;-69
2023/06/15 18:48:06;;;;;;;3.30;1.80;;;;;;;17.88;54.53;97820.66;10510548;28;20040;-68
2023/06/15 18:53:27;;;;;;;4.10;2.03;;;;;;;17.67;54.80;97824.72;10510744;28;20074;-67
2023/06/15 18:58:48;;;;;;;3.20;2.00;;;;;;;17.45;55.28;97818.88;10524705;28;20522;-68
2023/06/15 19:04:09;;;;;;;3.58;2.40;;;;;;;17.32;55.45;97819.72;10510207;28;20040;-68
2023/06/15 19:09:31;;;;;;;6.32;2.25;;;;;;;17.10;55.50;97822.34;10525802;28;20044;-69
2023/06/15 19:14:52;;;;;;;6.97;2.50;;;;;;;16.83;56.03;97831.72;10532775;28;20077;-68
2023/06/15 19:20:13;;;;;;;6.88;2.28;;;;;;;16.65;56.32;97833.69;10532848;28;20043;-68
2023/06/15 19:25:34;;;;;;;4.60;2.30;;;;;;;16.48;57.26;97834.31;10547340;28;20043;-68
2023/06/15 19:30:55;;;;;;;4.30;2.60;;;;;;;16.41;57.40;97841.06;10532307;28;20094;-69
2023/06/15 19:36:16;;;;;;;5.65;4.10;;;;;;;16.28;57.92;97845.38;10547331;28;20063;-69
2023/06/15 19:41:36;;;;;;;5.40;2.42;;;;;;;16.18;58.32;97850.53;10546833;28;20060;-68
2023/06/15 19:46:57;;;;;;;4.05;2.65;;;;;;;16.03;58.85;97855.50;10546899;28;20071;-69
2023/06/15 19:52:18;;;;;;;5.32;2.67;;;;;;;15.91;59.27;97866.16;10546384;28;20166;-69
2023/06/15 19:57:39;;;;;;;5.05;2.78;;;;;;;15.83;59.26;97867.88;10546324;28;20466;-69
2023/06/15 20:02:59;;;;;;;4.28;2.50;;;;;;;15.73;59.64;97863.22;10513931;28;20072;-68
2023/06/15 20:08:21;;;;;;;6.50;2.92;;;;;;;15.61;60.34;97862.59;10503901;28;20037;-69
2023/06/15 20:13:42;;;;;;;8.00;3.53;;;;;;;15.56;60.99;97860.91;10488536;28;20072;-69
2023/06/15 20:19:03;;;;;;;4.70;3.05;;;;;;;15.52;61.37;97857.88;10460805;28;20091;-67
2023/06/15 20:24:24;;;;;;;4.40;2.78;;;;;;;15.48;61.71;97857.69;10487004;28;20065;-71
2023/06/15 20:29:45;;;;;;;5.65;3.67;;;;;;;15.42;61.64;97863.00;10488077;28;20466;-68
2023/06/15 20:35:07;;;;;;;7.43;3.58;;;;;;;15.36;62.81;97849.38;10487907;28;20079;-68
2023/06/15 20:40:28;;;;;;;4.65;3.15;;;;;;;15.33;63.60;97858.31;10487614;28;20163;-68
2023/06/15 20:45:48;;;;;;;7.93;3.78;;;;;;;15.24;63.41;97857.19;10502459;28;20115;-69
2023/06/15 20:51:09;;;;;;;6.07;3.20;;;;;;;15.20;64.12;97856.25;10487248;28;20068;-69
2023/06/15 20:56:29;;;;;;;4.55;3.45;;;;;;;15.24;64.70;97851.56;10473020;28;20183;-68
2023/06/15 21:01:50;;;;;;;8.10;3.22;;;;;;;15.25;65.01;97855.09;10508657;28;20123;-69
2023/06/15 21:07:11;;;;;;;5.22;3.13;;;;;;;15.18;64.90;97854.81;10514053;28;20040;-68
2023/06/15 21:12:31;;;;;;;4.65;3.03;;;;;;;15.05;65.32;97852.69;10543355;28;20040;-69
2023/06/15 21:17:53;;;;;;;4.47;3.10;;;;;;;14.92;65.22;97856.25;10527973;28;20071;-69
2023/06/15 21:23:14;;;;;;;5.40;2.75;;;;;;;14.76;65.85;97853.31;10499839;28;20086;-69
2023/06/15 21:28:35;;;;;;;6.07;2.95;;;;;;;14.72;66.04;97836.25;10527404;28;20131;-69
2023/06/15 21:33:55;;;;;;;5.28;2.95;;;;;;;14.70;66.84;97841.03;10512909;28;20529;-69
2023/06/15 21:39:16;;;;;;;7.93;2.95;;;;;;;14.66;67.25;97843.59;10542393;28;20115;-69
2023/06/15 21:44:40;;;;;;;7.38;3.08;;;;;;;14.62;66.96;97835.72;10541843;28;20120;-69
2023/06/15 21:50:01;;;;;;;5.43;2.97;;;;;;;14.58;67.22;97841.84;10512996;28;20059;-69
2023/06/15 21:55:22;;;;;;;6.00;2.85;;;;;;;14.53;67.04;97836.63;10512789;28;20121;-68
2023/06/15 22:00:43;;;;;;;4.25;2.30;;;;;;;14.51;67.41;97837.25;10498592;28;20060;-69
2023/06/15 22:06:06;;;;;;;4.60;2.60;;;;;;;14.47;67.15;97822.25;10499101;28;20060;-68
2023/06/15 22:11:27;;;;;;;4.35;2.28;;;;;;;14.41;67.29;97822.63;10471009;28;20470;-68
2023/06/15 22:16:49;;;;;;;3.78;2.60;;;;;;;14.38;67.41;97828.75;10484002;28;20063;-68
2023/06/15 22:22:10;;;;;;;5.55;2.47;;;;;;;14.32;67.37;97823.53;10484072;28;20115;-69
2023/06/15 22:27:31;;;;;;;6.72;2.92;;;;;;;14.32;67.14;97823.53;10483642;28;20085;-68
2023/06/15 22:32:54;;;;;;;3.72;2.53;;;;;;;14.34;67.19;97818.03;10441905;28;20182;-68
2023/06/15 22:38:15;;;;;;;5.60;2.60;;;;;;;14.35;67.27;97811.06;10498210;28;20139;-69
2023/06/15 22:43:36;;;;;;;7.25;2.40;;;;;;;14.39;67.17;97805.69;10482714;28;20427;-69
2023/06/15 22:48:58;;;;;;;3.60;2.38;;;;;;;14.41;67.15;97805.78;10483035;28;20067;-69
2023/06/15 22:54:19;;;;;;;3.70;2.60;;;;;;;14.48;67.34;97795.66;10497988;28;20094;-68
2023/06/15 22:59:42;;;;;;;5.78;2.40;;;;;;;14.60;67.10;97790.66;10497576;28;20163;-69
2023/06/15 23:05:06;;;;;;;4.90;2.50;;;;;;;14.64;67.22;97795.75;10502224;28;20485;-67
2023/06/15 23:10:27;;;;;;;4.47;2.95;;;;;;;14.66;67.21;97787.41;10524019;28;20078;-69
2023/06/15 23:15:52;;;;;;;3.75;2.33;;;;;;;14.62;66.93;97787.22;10539220;28;20068;-69
2023/06/15 23:21:14;;;;;;;4.15;2.90;;;;;;;14.56;67.46;97777.13;10511446;28;20116;-69
2023/06/15 23:26:38;;;;;;;3.70;2.30;;;;;;;14.51;67.29;97772.66;10523946;28;20111;-69
2023/06/15 23:31:59;;;;;;;6.13;2.85;;;;;;;14.45;67.69;97775.13;10524336;28;20115;-69
2023/06/15 23:37:20;;;;;;;3.78;2.38;;;;;;;14.42;67.47;97770.00;10509691;28;20155;-68
2023/06/15 23:42:40;;;;;;;4.43;3.08;;;;;;;14.43;67.71;97771.47;10523664;28;20437;-69
2023/06/15 23:48:02;;;;;;;7.20;2.90;;;;;;;14.48;68.10;97759.84;10538312;28;20060;-69
2023/06/15 23:53:23;;;;;;;6.20;2.72;;;;;;;14.51;67.68;97761.41;10523333;28;20162;-68
2023/06/15 23:58:44;;;;;;;4.78;2.95;;;;;;;14.47;67.80;97746.41;10530012;28;20076;-69
